sensor_id;sensor_type;location;lat;lon;timestamp;P1;durP1;ratioP1;P2;durP2;ratioP2
72639;SDS011;60683;51.730;8.762;2024-01-15T00:02:05;21.25;;;11.27;;
72639;SDS011;60683;51.730;8.762;2024-01-15T00:04:52;11.07;;;5.97;;
72639;SDS011;60683;51.730;8.762;2024-01-15T00:07:42;16.05;;;6.72;;
72639;SDS011;60683;51.730;8.762;2024-01-15T00:10:33;14.18;;;7.93;;
72639;SDS011;60683;51.730;8.762;2024-01-15T00:13:20;15.45;;;10.35;;
72639;SDS011;60683;51.730;8.762;2024-01-15T00:16:08;15.63;;;6.53;;
72639;SDS011;60683;51.730;8.762;2024-01-15T00:19:04;13.20;;;5.55;;
72639;SDS011;60683;51.730;8.762;2024-01-15T00:21:58;10.05;;;6.43;;
72639;SDS011;60683;51.730;8.762;2024-01-15T00:24:46;16.90;;;7.90;;
72639;SDS011;60683;51.730;8.762;2024-01-15T00:27:36;13.18;;;6.45;;
72639;SDS011;60683;51.730;8.762;2024-01-15T00:30:25;12.13;;;6.55;;
72639;SDS011;60683;51.730;8.762;2024-01-15T00:33:15;18.48;;;8.30;;
72639;SDS011;60683;51.730;8.762;2024-01-15T00:36:07;14.57;;;6.60;;
72639;SDS011;60683;51.730;8.762;2024-01-15T00:39:03;7.63;;;3.53;;
72639;SDS011;60683;51.730;8.762;2024-01-15T00:41:54;8.50;;;3.45;;
72639;SDS011;60683;51.730;8.762;2024-01-15T00:44:44;18.48;;;7.85;;
72639;SDS011;60683;51.730;8.762;2024-01-15T00:47:33;13.45;;;7.30;;
72639;SDS011;60683;51.730;8.762;2024-01-15T00:50:24;12.60;;;6.63;;
72639;SDS011;60683;51.730;8.762;2024-01-15T00:53:17;13.93;;;7.20;;
72639;SDS011;60683;51.730;8.762;2024-01-15T00:56:05;12.05;;;6.03;;
72639;SDS011;60683;51.730;8.762;2024-01-15T00:58:53;14.32;;;8.32;;
72639;SDS011;60683;51.730;8.762;2024-01-15T01:01:40;12.93;;;6.45;;
72639;SDS011;60683;51.730;8.762;2024-01-15T01:04:30;12.85;;;6.55;;
72639;SDS011;60683;51.730;8.762;2024-01-15T01:07:20;9.07;;;5.03;;
72639;SDS011;60683;51.730;8.762;2024-01-15T01:10:10;13.10;;;5.65;;
72639;SDS011;60683;51.730;8.762;2024-01-15T01:12:58;17.05;;;8.77;;
72639;SDS011;60683;51.730;8.762;2024-01-15T01:15:49;9.35;;;3.70;;
72639;SDS011;60683;51.730;8.762;2024-01-15T01:18:37;16.70;;;7.38;;
72639;SDS011;60683;51.730;8.762;2024-01-15T01:21:27;13.40;;;4.82;;
72639;SDS011;60683;51.730;8.762;2024-01-15T01:24:17;18.15;;;8.90;;
72639;SDS011;60683;51.730;8.762;2024-01-15T01:27:20;9.90;;;4.78;;
72639;SDS011;60683;51.730;8.762;2024-01-15T01:30:08;7.13;;;3.70;;
72639;SDS011;60683;51.730;8.762;2024-01-15T01:32:57;11.98;;;5.32;;
72639;SDS011;60683;51.730;8.762;2024-01-15T01:35:47;9.68;;;4.88;;
72639;SDS011;60683;51.730;8.762;2024-01-15T01:41:21;7.93;;;3.00;;
72639;SDS011;60683;51.730;8.762;2024-01-15T01:44:17;11.48;;;5.22;;
72639;SDS011;60683;51.730;8.762;2024-01-15T01:47:06;11.50;;;6.38;;
72639;SDS011;60683;51.730;8.762;2024-01-15T01:49:55;8.32;;;5.68;;
72639;SDS011;60683;51.730;8.762;2024-01-15T01:52:45;8.73;;;5.55;;
72639;SDS011;60683;51.730;8.762;2024-01-15T01:55:36;9.10;;;4.38;;
72639;SDS011;60683;51.730;8.762;2024-01-15T02:01:14;19.13;;;7.60;;
72639;SDS011;60683;51.730;8.762;2024-01-15T02:04:03;8.10;;;3.03;;
72639;SDS011;60683;51.730;8.762;2024-01-15T02:06:52;8.73;;;3.83;;
72639;SDS011;60683;51.730;8.762;2024-01-15T02:09:41;12.25;;;6.25;;
72639;SDS011;60683;51.730;8.762;2024-01-15T02:12:30;15.73;;;6.25;;
72639;SDS011;60683;51.730;8.762;2024-01-15T02:15:18;13.50;;;6.10;;
72639;SDS011;60683;51.730;8.762;2024-01-15T02:18:12;8.95;;;4.10;;
72639;SDS011;60683;51.730;8.762;2024-01-15T02:21:00;16.50;;;8.13;;
72639;SDS011;60683;51.730;8.762;2024-01-15T02:23:55;7.22;;;4.53;;
72639;SDS011;60683;51.730;8.762;2024-01-15T02:26:45;23.88;;;9.52;;
72639;SDS011;60683;51.730;8.762;2024-01-15T02:29:36;14.63;;;6.30;;
72639;SDS011;60683;51.730;8.762;2024-01-15T02:32:24;11.10;;;7.65;;
72639;SDS011;60683;51.730;8.762;2024-01-15T02:35:12;15.55;;;8.20;;
72639;SDS011;60683;51.730;8.762;2024-01-15T02:37:59;17.08;;;8.82;;
72639;SDS011;60683;51.730;8.762;2024-01-15T02:41:04;9.63;;;5.80;;
72639;SDS011;60683;51.730;8.762;2024-01-15T02:43:54;14.23;;;7.03;;
72639;SDS011;60683;51.730;8.762;2024-01-15T02:46:40;10.90;;;5.03;;
72639;SDS011;60683;51.730;8.762;2024-01-15T02:49:27;9.63;;;3.78;;
72639;SDS011;60683;51.730;8.762;2024-01-15T02:52:19;13.90;;;6.60;;
72639;SDS011;60683;51.730;8.762;2024-01-15T02:55:10;11.52;;;5.10;;
72639;SDS011;60683;51.730;8.762;2024-01-15T02:58:12;18.38;;;6.07;;
72639;SDS011;60683;51.730;8.762;2024-01-15T03:01:01;10.80;;;4.70;;
72639;SDS011;60683;51.730;8.762;2024-01-15T03:03:55;12.50;;;6.82;;
72639;SDS011;60683;51.730;8.762;2024-01-15T03:06:43;12.70;;;5.35;;
72639;SDS011;60683;51.730;8.762;2024-01-15T03:09:33;9.93;;;5.28;;
72639;SDS011;60683;51.730;8.762;2024-01-15T03:12:23;6.70;;;4.25;;
72639;SDS011;60683;51.730;8.762;2024-01-15T03:15:19;9.30;;;4.28;;
72639;SDS011;60683;51.730;8.762;2024-01-15T03:18:06;9.73;;;4.50;;
72639;SDS011;60683;51.730;8.762;2024-01-15T03:20:54;5.85;;;3.03;;
72639;SDS011;60683;51.730;8.762;2024-01-15T03:23:41;14.43;;;7.07;;
72639;SDS011;60683;51.730;8.762;2024-01-15T03:26:30;10.00;;;4.72;;
72639;SDS011;60683;51.730;8.762;2024-01-15T03:29:17;20.50;;;8.18;;
72639;SDS011;60683;51.730;8.762;2024-01-15T03:32:10;10.70;;;5.38;;
72639;SDS011;60683;51.730;8.762;2024-01-15T03:35:00;15.15;;;5.70;;
72639;SDS011;60683;51.730;8.762;2024-01-15T03:37:50;10.05;;;4.97;;
72639;SDS011;60683;51.730;8.762;2024-01-15T03:40:40;13.32;;;7.03;;
72639;SDS011;60683;51.730;8.762;2024-01-15T03:43:31;17.02;;;6.85;;
72639;SDS011;60683;51.730;8.762;2024-01-15T03:46:21;6.78;;;3.83;;
72639;SDS011;60683;51.730;8.762;2024-01-15T03:49:19;15.10;;;5.78;;
72639;SDS011;60683;51.730;8.762;2024-01-15T03:52:10;14.90;;;5.75;;
72639;SDS011;60683;51.730;8.762;2024-01-15T03:55:00;8.77;;;5.47;;
72639;SDS011;60683;51.730;8.762;2024-01-15T03:57:50;7.72;;;4.55;;
72639;SDS011;60683;51.730;8.762;2024-01-15T04:00:40;15.38;;;7.20;;
72639;SDS011;60683;51.730;8.762;2024-01-15T04:03:29;13.38;;;6.88;;
72639;SDS011;60683;51.730;8.762;2024-01-15T04:06:23;12.55;;;4.93;;
72639;SDS011;60683;51.730;8.762;2024-01-15T04:09:13;8.98;;;5.82;;
72639;SDS011;60683;51.730;8.762;2024-01-15T04:12:03;15.57;;;7.88;;
72639;SDS011;60683;51.730;8.762;2024-01-15T04:14:53;10.15;;;4.03;;
72639;SDS011;60683;51.730;8.762;2024-01-15T04:17:44;13.05;;;5.85;;
72639;SDS011;60683;51.730;8.762;2024-01-15T04:20:33;12.48;;;6.20;;
72639;SDS011;60683;51.730;8.762;2024-01-15T04:23:33;9.68;;;4.60;;
72639;SDS011;60683;51.730;8.762;2024-01-15T04:26:23;12.65;;;6.28;;
72639;SDS011;60683;51.730;8.762;2024-01-15T04:29:13;13.60;;;7.25;;
72639;SDS011;60683;51.730;8.762;2024-01-15T04:32:00;13.57;;;6.38;;
72639;SDS011;60683;51.730;8.762;2024-01-15T04:34:50;12.88;;;5.75;;
72639;SDS011;60683;51.730;8.762;2024-01-15T04:37:40;14.27;;;5.40;;
72639;SDS011;60683;51.730;8.762;2024-01-15T04:40:34;8.68;;;4.90;;
72639;SDS011;60683;51.730;8.762;2024-01-15T04:43:25;15.50;;;6.65;;
72639;SDS011;60683;51.730;8.762;2024-01-15T04:46:26;16.60;;;7.00;;
72639;SDS011;60683;51.730;8.762;2024-01-15T04:49:15;14.13;;;5.80;;
72639;SDS011;60683;51.730;8.762;2024-01-15T04:52:05;6.05;;;2.70;;
72639;SDS011;60683;51.730;8.762;2024-01-15T04:54:56;16.20;;;8.25;;
72639;SDS011;60683;51.730;8.762;2024-01-15T04:57:54;14.07;;;5.75;;
72639;SDS011;60683;51.730;8.762;2024-01-15T05:00:49;17.42;;;7.97;;
72639;SDS011;60683;51.730;8.762;2024-01-15T05:03:44;9.77;;;4.38;;
72639;SDS011;60683;51.730;8.762;2024-01-15T05:06:31;10.98;;;6.10;;
72639;SDS011;60683;51.730;8.762;2024-01-15T05:09:19;15.50;;;6.32;;
72639;SDS011;60683;51.730;8.762;2024-01-15T05:12:09;11.15;;;4.00;;
72639;SDS011;60683;51.730;8.762;2024-01-15T05:15:08;8.93;;;4.00;;
72639;SDS011;60683;51.730;8.762;2024-01-15T05:17:59;19.60;;;7.40;;
72639;SDS011;60683;51.730;8.762;2024-01-15T05:20:49;11.02;;;4.55;;
72639;SDS011;60683;51.730;8.762;2024-01-15T05:23:38;16.30;;;7.40;;
72639;SDS011;60683;51.730;8.762;2024-01-15T05:26:26;11.73;;;6.28;;
72639;SDS011;60683;51.730;8.762;2024-01-15T05:29:13;7.15;;;3.70;;
72639;SDS011;60683;51.730;8.762;2024-01-15T05:32:12;7.60;;;4.13;;
72639;SDS011;60683;51.730;8.762;2024-01-15T05:35:03;10.05;;;5.13;;
72639;SDS011;60683;51.730;8.762;2024-01-15T05:37:54;14.25;;;4.97;;
72639;SDS011;60683;51.730;8.762;2024-01-15T05:40:44;11.13;;;5.57;;
72639;SDS011;60683;51.730;8.762;2024-01-15T05:43:32;13.85;;;5.63;;
72639;SDS011;60683;51.730;8.762;2024-01-15T05:46:22;9.70;;;5.75;;
72639;SDS011;60683;51.730;8.762;2024-01-15T05:49:19;6.38;;;3.88;;
72639;SDS011;60683;51.730;8.762;2024-01-15T05:52:11;8.63;;;5.00;;
72639;SDS011;60683;51.730;8.762;2024-01-15T05:55:02;8.77;;;4.78;;
72639;SDS011;60683;51.730;8.762;2024-01-15T05:57:49;10.05;;;4.90;;
72639;SDS011;60683;51.730;8.762;2024-01-15T06:00:37;13.90;;;5.28;;
72639;SDS011;60683;51.730;8.762;2024-01-15T06:03:24;8.57;;;4.38;;
72639;SDS011;60683;51.730;8.762;2024-01-15T06:06:14;11.60;;;6.43;;
72639;SDS011;60683;51.730;8.762;2024-01-15T06:09:04;20.50;;;5.45;;
72639;SDS011;60683;51.730;8.762;2024-01-15T06:11:52;12.32;;;6.40;;
72639;SDS011;60683;51.730;8.762;2024-01-15T06:14:40;16.67;;;7.68;;
72639;SDS011;60683;51.730;8.762;2024-01-15T06:17:33;11.45;;;5.72;;
72639;SDS011;60683;51.730;8.762;2024-01-15T06:20:20;12.43;;;4.55;;
72639;SDS011;60683;51.730;8.762;2024-01-15T06:23:12;14.88;;;6.05;;
72639;SDS011;60683;51.730;8.762;2024-01-15T06:25:59;8.00;;;3.30;;
72639;SDS011;60683;51.730;8.762;2024-01-15T06:28:51;17.13;;;6.75;;
72639;SDS011;60683;51.730;8.762;2024-01-15T06:31:41;10.43;;;5.28;;
72639;SDS011;60683;51.730;8.762;2024-01-15T06:34:31;16.85;;;7.65;;
72639;SDS011;60683;51.730;8.762;2024-01-15T06:37:19;12.52;;;5.53;;
72639;SDS011;60683;51.730;8.762;2024-01-15T06:40:11;15.27;;;6.28;;
72639;SDS011;60683;51.730;8.762;2024-01-15T06:42:58;12.60;;;5.70;;
72639;SDS011;60683;51.730;8.762;2024-01-15T06:45:45;7.93;;;4.78;;
72639;SDS011;60683;51.730;8.762;2024-01-15T06:48:32;12.75;;;4.95;;
72639;SDS011;60683;51.730;8.762;2024-01-15T06:51:22;19.30;;;7.70;;
72639;SDS011;60683;51.730;8.762;2024-01-15T06:54:10;14.18;;;7.18;;
72639;SDS011;60683;51.730;8.762;2024-01-15T06:56:59;13.18;;;5.22;;
72639;SDS011;60683;51.730;8.762;2024-01-15T06:59:48;28.10;;;10.13;;
72639;SDS011;60683;51.730;8.762;2024-01-15T07:02:36;8.52;;;5.22;;
72639;SDS011;60683;51.730;8.762;2024-01-15T07:05:23;14.20;;;4.63;;
72639;SDS011;60683;51.730;8.762;2024-01-15T07:14:10;6.70;;;3.88;;
72639;SDS011;60683;51.730;8.762;2024-01-15T07:16:59;7.18;;;3.83;;
72639;SDS011;60683;51.730;8.762;2024-01-15T07:19:46;14.52;;;5.07;;
72639;SDS011;60683;51.730;8.762;2024-01-15T07:22:35;8.98;;;5.35;;
72639;SDS011;60683;51.730;8.762;2024-01-15T07:25:30;14.15;;;5.72;;
72639;SDS011;60683;51.730;8.762;2024-01-15T07:28:20;11.32;;;5.32;;
72639;SDS011;60683;51.730;8.762;2024-01-15T07:31:16;17.65;;;5.90;;
72639;SDS011;60683;51.730;8.762;2024-01-15T07:34:05;6.18;;;3.63;;
72639;SDS011;60683;51.730;8.762;2024-01-15T07:36:56;13.10;;;4.55;;
72639;SDS011;60683;51.730;8.762;2024-01-15T07:39:47;11.15;;;4.90;;
72639;SDS011;60683;51.730;8.762;2024-01-15T07:42:40;11.40;;;5.38;;
72639;SDS011;60683;51.730;8.762;2024-01-15T07:45:30;10.65;;;7.03;;
72639;SDS011;60683;51.730;8.762;2024-01-15T07:48:22;12.32;;;6.43;;
72639;SDS011;60683;51.730;8.762;2024-01-15T07:51:12;6.45;;;4.80;;
72639;SDS011;60683;51.730;8.762;2024-01-15T07:54:05;11.18;;;6.20;;
72639;SDS011;60683;51.730;8.762;2024-01-15T07:57:06;9.35;;;5.85;;
72639;SDS011;60683;51.730;8.762;2024-01-15T07:59:56;15.63;;;6.30;;
72639;SDS011;60683;51.730;8.762;2024-01-15T08:02:48;10.57;;;4.18;;
72639;SDS011;60683;51.730;8.762;2024-01-15T08:05:47;8.93;;;5.45;;
72639;SDS011;60683;51.730;8.762;2024-01-15T08:08:40;15.18;;;6.63;;
72639;SDS011;60683;51.730;8.762;2024-01-15T08:11:32;9.45;;;3.95;;
72639;SDS011;60683;51.730;8.762;2024-01-15T08:14:23;11.23;;;7.55;;
72639;SDS011;60683;51.730;8.762;2024-01-15T08:17:12;13.05;;;7.50;;
72639;SDS011;60683;51.730;8.762;2024-01-15T08:20:01;20.13;;;7.18;;
72639;SDS011;60683;51.730;8.762;2024-01-15T08:22:59;11.75;;;5.97;;
72639;SDS011;60683;51.730;8.762;2024-01-15T08:25:45;10.93;;;5.53;;
72639;SDS011;60683;51.730;8.762;2024-01-15T08:28:34;11.27;;;6.57;;
72639;SDS011;60683;51.730;8.762;2024-01-15T08:31:21;25.73;;;5.97;;
72639;SDS011;60683;51.730;8.762;2024-01-15T08:34:09;7.40;;;2.88;;
72639;SDS011;60683;51.730;8.762;2024-01-15T08:36:59;13.50;;;8.30;;
72639;SDS011;60683;51.730;8.762;2024-01-15T08:39:52;7.93;;;4.53;;
72639;SDS011;60683;51.730;8.762;2024-01-15T08:42:42;15.63;;;5.93;;
72639;SDS011;60683;51.730;8.762;2024-01-15T08:45:36;9.48;;;4.68;;
72639;SDS011;60683;51.730;8.762;2024-01-15T08:48:23;7.88;;;3.53;;
72639;SDS011;60683;51.730;8.762;2024-01-15T08:51:14;17.98;;;8.88;;
72639;SDS011;60683;51.730;8.762;2024-01-15T08:54:05;8.55;;;4.55;;
72639;SDS011;60683;51.730;8.762;2024-01-15T08:56:58;10.57;;;6.10;;
72639;SDS011;60683;51.730;8.762;2024-01-15T08:59:49;12.30;;;5.38;;
72639;SDS011;60683;51.730;8.762;2024-01-15T09:02:41;8.90;;;6.70;;
72639;SDS011;60683;51.730;8.762;2024-01-15T09:05:29;10.20;;;5.57;;
72639;SDS011;60683;51.730;8.762;2024-01-15T09:08:18;12.43;;;5.75;;
72639;SDS011;60683;51.730;8.762;2024-01-15T09:11:05;16.38;;;8.02;;
72639;SDS011;60683;51.730;8.762;2024-01-15T09:14:00;7.97;;;5.75;;
72639;SDS011;60683;51.730;8.762;2024-01-15T09:16:47;15.85;;;8.20;;
72639;SDS011;60683;51.730;8.762;2024-01-15T09:19:37;8.20;;;3.58;;
72639;SDS011;60683;51.730;8.762;2024-01-15T09:22:33;15.10;;;6.57;;
72639;SDS011;60683;51.730;8.762;2024-01-15T09:25:21;16.33;;;8.40;;
72639;SDS011;60683;51.730;8.762;2024-01-15T09:28:09;6.60;;;3.13;;
72639;SDS011;60683;51.730;8.762;2024-01-15T09:31:00;11.38;;;6.13;;
72639;SDS011;60683;51.730;8.762;2024-01-15T09:33:48;10.98;;;5.95;;
72639;SDS011;60683;51.730;8.762;2024-01-15T09:36:42;19.10;;;8.68;;
72639;SDS011;60683;51.730;8.762;2024-01-15T09:39:34;17.92;;;7.53;;
72639;SDS011;60683;51.730;8.762;2024-01-15T09:42:24;9.93;;;5.65;;
72639;SDS011;60683;51.730;8.762;2024-01-15T09:45:14;12.18;;;6.07;;
72639;SDS011;60683;51.730;8.762;2024-01-15T09:48:08;17.23;;;7.65;;
72639;SDS011;60683;51.730;8.762;2024-01-15T09:50:55;14.57;;;5.45;;
72639;SDS011;60683;51.730;8.762;2024-01-15T09:53:48;15.15;;;6.25;;
72639;SDS011;60683;51.730;8.762;2024-01-15T09:56:38;9.55;;;5.53;;
72639;SDS011;60683;51.730;8.762;2024-01-15T09:59:26;7.50;;;4.85;;
72639;SDS011;60683;51.730;8.762;2024-01-15T10:02:15;10.07;;;5.28;;
72639;SDS011;60683;51.730;8.762;2024-01-15T10:05:07;11.48;;;5.30;;
72639;SDS011;60683;51.730;8.762;2024-01-15T10:07:57;14.63;;;8.05;;
72639;SDS011;60683;51.730;8.762;2024-01-15T10:10:47;12.10;;;5.45;;
72639;SDS011;60683;51.730;8.762;2024-01-15T10:13:38;6.75;;;3.63;;
72639;SDS011;60683;51.730;8.762;2024-01-15T10:16:29;11.80;;;4.88;;
72639;SDS011;60683;51.730;8.762;2024-01-15T10:19:16;10.07;;;4.00;;
72639;SDS011;60683;51.730;8.762;2024-01-15T10:22:08;13.07;;;5.05;;
72639;SDS011;60683;51.730;8.762;2024-01-15T10:24:58;10.63;;;4.10;;
72639;SDS011;60683;51.730;8.762;2024-01-15T10:28:01;11.43;;;4.90;;
72639;SDS011;60683;51.730;8.762;2024-01-15T10:30:54;6.30;;;3.95;;
72639;SDS011;60683;51.730;8.762;2024-01-15T10:33:45;11.00;;;6.03;;
72639;SDS011;60683;51.730;8.762;2024-01-15T10:36:40;9.82;;;3.78;;
72639;SDS011;60683;51.730;8.762;2024-01-15T10:39:30;13.38;;;5.88;;
72639;SDS011;60683;51.730;8.762;2024-01-15T10:42:20;9.40;;;4.75;;
72639;SDS011;60683;51.730;8.762;2024-01-15T10:47:57;8.15;;;4.18;;
72639;SDS011;60683;51.730;8.762;2024-01-15T10:50:48;6.32;;;2.95;;
72639;SDS011;60683;51.730;8.762;2024-01-15T10:53:37;16.42;;;6.47;;
72639;SDS011;60683;51.730;8.762;2024-01-15T10:56:41;7.55;;;3.00;;
72639;SDS011;60683;51.730;8.762;2024-01-15T10:59:33;10.75;;;4.88;;
72639;SDS011;60683;51.730;8.762;2024-01-15T11:02:27;8.95;;;4.68;;
72639;SDS011;60683;51.730;8.762;2024-01-15T11:05:18;4.00;;;2.75;;
72639;SDS011;60683;51.730;8.762;2024-01-15T11:08:11;5.47;;;3.20;;
72639;SDS011;60683;51.730;8.762;2024-01-15T11:11:07;5.97;;;2.67;;
72639;SDS011;60683;51.730;8.762;2024-01-15T11:14:02;18.75;;;3.22;;
72639;SDS011;60683;51.730;8.762;2024-01-15T11:16:53;4.25;;;1.90;;
72639;SDS011;60683;51.730;8.762;2024-01-15T11:19:46;3.10;;;1.83;;
72639;SDS011;60683;51.730;8.762;2024-01-15T11:22:49;5.50;;;2.63;;
72639;SDS011;60683;51.730;8.762;2024-01-15T11:25:42;6.80;;;3.40;;
72639;SDS011;60683;51.730;8.762;2024-01-15T11:28:48;5.68;;;3.75;;
72639;SDS011;60683;51.730;8.762;2024-01-15T11:34:55;7.00;;;3.28;;
72639;SDS011;60683;51.730;8.762;2024-01-15T11:37:58;5.55;;;2.85;;
72639;SDS011;60683;51.730;8.762;2024-01-15T11:40:49;7.78;;;3.13;;
72639;SDS011;60683;51.730;8.762;2024-01-15T11:43:46;7.53;;;3.97;;
72639;SDS011;60683;51.730;8.762;2024-01-15T11:46:36;5.45;;;3.30;;
72639;SDS011;60683;51.730;8.762;2024-01-15T11:49:57;6.95;;;3.05;;
72639;SDS011;60683;51.730;8.762;2024-01-15T11:53:00;3.58;;;2.13;;
72639;SDS011;60683;51.730;8.762;2024-01-15T11:55:57;5.72;;;2.45;;
72639;SDS011;60683;51.730;8.762;2024-01-15T11:58:48;6.88;;;3.90;;
72639;SDS011;60683;51.730;8.762;2024-01-15T12:01:36;6.38;;;2.97;;
72639;SDS011;60683;51.730;8.762;2024-01-15T12:04:26;8.77;;;3.80;;
72639;SDS011;60683;51.730;8.762;2024-01-15T12:07:23;4.75;;;2.50;;
72639;SDS011;60683;51.730;8.762;2024-01-15T12:10:14;7.43;;;3.28;;
72639;SDS011;60683;51.730;8.762;2024-01-15T12:13:10;6.78;;;2.67;;
72639;SDS011;60683;51.730;8.762;2024-01-15T12:16:00;6.00;;;2.88;;
72639;SDS011;60683;51.730;8.762;2024-01-15T12:18:51;6.40;;;2.80;;
72639;SDS011;60683;51.730;8.762;2024-01-15T12:21:41;6.50;;;2.10;;
72639;SDS011;60683;51.730;8.762;2024-01-15T12:24:36;5.78;;;3.33;;
72639;SDS011;60683;51.730;8.762;2024-01-15T12:27:25;9.38;;;2.50;;
72639;SDS011;60683;51.730;8.762;2024-01-15T12:30:16;4.80;;;2.08;;
72639;SDS011;60683;51.730;8.762;2024-01-15T12:33:05;6.60;;;3.25;;
72639;SDS011;60683;51.730;8.762;2024-01-15T12:35:53;10.07;;;2.40;;
72639;SDS011;60683;51.730;8.762;2024-01-15T12:38:47;4.03;;;2.08;;
72639;SDS011;60683;51.730;8.762;2024-01-15T12:41:43;9.90;;;2.80;;
72639;SDS011;60683;51.730;8.762;2024-01-15T12:44:33;4.95;;;2.45;;
72639;SDS011;60683;51.730;8.762;2024-01-15T12:47:20;7.85;;;4.05;;
72639;SDS011;60683;51.730;8.762;2024-01-15T12:50:09;3.05;;;1.92;;
72639;SDS011;60683;51.730;8.762;2024-01-15T12:53:02;6.65;;;2.72;;
72639;SDS011;60683;51.730;8.762;2024-01-15T12:55:51;2.63;;;2.00;;
72639;SDS011;60683;51.730;8.762;2024-01-15T12:58:48;4.90;;;2.45;;
72639;SDS011;60683;51.730;8.762;2024-01-15T13:01:35;4.68;;;2.78;;
72639;SDS011;60683;51.730;8.762;2024-01-15T13:04:24;7.72;;;3.03;;
72639;SDS011;60683;51.730;8.762;2024-01-15T13:07:14;5.43;;;2.65;;
72639;SDS011;60683;51.730;8.762;2024-01-15T13:10:06;4.53;;;2.25;;
72639;SDS011;60683;51.730;8.762;2024-01-15T13:13:01;8.30;;;2.22;;
72639;SDS011;60683;51.730;8.762;2024-01-15T13:15:56;2.92;;;1.58;;
72639;SDS011;60683;51.730;8.762;2024-01-15T13:18:43;7.57;;;3.35;;
72639;SDS011;60683;51.730;8.762;2024-01-15T13:21:31;9.00;;;4.50;;
72639;SDS011;60683;51.730;8.762;2024-01-15T13:24:17;3.30;;;1.40;;
72639;SDS011;60683;51.730;8.762;2024-01-15T13:27:04;6.25;;;3.30;;
72639;SDS011;60683;51.730;8.762;2024-01-15T13:29:55;4.70;;;1.95;;
72639;SDS011;60683;51.730;8.762;2024-01-15T13:32:50;4.70;;;2.30;;
72639;SDS011;60683;51.730;8.762;2024-01-15T13:35:49;2.70;;;1.55;;
72639;SDS011;60683;51.730;8.762;2024-01-15T13:38:40;5.97;;;3.00;;
72639;SDS011;60683;51.730;8.762;2024-01-15T13:41:27;4.40;;;2.35;;
72639;SDS011;60683;51.730;8.762;2024-01-15T13:44:16;4.40;;;2.38;;
72639;SDS011;60683;51.730;8.762;2024-01-15T13:47:05;5.93;;;2.33;;
72639;SDS011;60683;51.730;8.762;2024-01-15T13:50:01;3.97;;;1.88;;
72639;SDS011;60683;51.730;8.762;2024-01-15T13:52:51;4.38;;;1.90;;
72639;SDS011;60683;51.730;8.762;2024-01-15T13:55:41;6.22;;;2.90;;
72639;SDS011;60683;51.730;8.762;2024-01-15T13:58:31;5.57;;;2.95;;
72639;SDS011;60683;51.730;8.762;2024-01-15T14:01:25;4.07;;;2.33;;
72639;SDS011;60683;51.730;8.762;2024-01-15T14:04:13;5.28;;;1.85;;
72639;SDS011;60683;51.730;8.762;2024-01-15T14:07:08;3.47;;;1.38;;
72639;SDS011;60683;51.730;8.762;2024-01-15T14:09:54;6.85;;;3.03;;
72639;SDS011;60683;51.730;8.762;2024-01-15T14:12:41;4.78;;;2.03;;
72639;SDS011;60683;51.730;8.762;2024-01-15T14:15:30;2.55;;;1.98;;
72639;SDS011;60683;51.730;8.762;2024-01-15T14:18:20;5.18;;;2.08;;
72639;SDS011;60683;51.730;8.762;2024-01-15T14:21:10;4.03;;;2.70;;
72639;SDS011;60683;51.730;8.762;2024-01-15T14:24:07;4.45;;;2.78;;
72639;SDS011;60683;51.730;8.762;2024-01-15T14:26:53;5.00;;;2.55;;
72639;SDS011;60683;51.730;8.762;2024-01-15T14:29:44;11.02;;;4.88;;
72639;SDS011;60683;51.730;8.762;2024-01-15T14:32:34;7.03;;;2.42;;
72639;SDS011;60683;51.730;8.762;2024-01-15T14:35:24;3.03;;;1.65;;
72639;SDS011;60683;51.730;8.762;2024-01-15T14:38:14;6.75;;;3.17;;
72639;SDS011;60683;51.730;8.762;2024-01-15T14:41:06;4.30;;;1.85;;
72639;SDS011;60683;51.730;8.762;2024-01-15T14:43:54;7.78;;;2.75;;
72639;SDS011;60683;51.730;8.762;2024-01-15T14:46:44;5.35;;;3.78;;
72639;SDS011;60683;51.730;8.762;2024-01-15T14:49:33;5.03;;;2.67;;
72639;SDS011;60683;51.730;8.762;2024-01-15T14:52:23;6.25;;;3.17;;
72639;SDS011;60683;51.730;8.762;2024-01-15T14:55:13;6.10;;;2.38;;
72639;SDS011;60683;51.730;8.762;2024-01-15T14:58:08;5.88;;;2.75;;
72639;SDS011;60683;51.730;8.762;2024-01-15T15:01:01;4.85;;;2.60;;
72639;SDS011;60683;51.730;8.762;2024-01-15T15:03:51;6.65;;;3.83;;
72639;SDS011;60683;51.730;8.762;2024-01-15T15:06:42;4.53;;;2.70;;
72639;SDS011;60683;51.730;8.762;2024-01-15T15:09:30;4.05;;;2.35;;
72639;SDS011;60683;51.730;8.762;2024-01-15T15:12:16;20.73;;;3.38;;
72639;SDS011;60683;51.730;8.762;2024-01-15T15:15:11;4.88;;;2.30;;
72639;SDS011;60683;51.730;8.762;2024-01-15T15:18:06;4.63;;;1.83;;
72639;SDS011;60683;51.730;8.762;2024-01-15T15:23:48;10.15;;;1.90;;
72639;SDS011;60683;51.730;8.762;2024-01-15T15:26:41;8.57;;;2.83;;
72639;SDS011;60683;51.730;8.762;2024-01-15T15:29:32;2.17;;;1.15;;
72639;SDS011;60683;51.730;8.762;2024-01-15T15:32:27;5.13;;;1.50;;
72639;SDS011;60683;51.730;8.762;2024-01-15T15:35:15;1.70;;;0.77;;
72639;SDS011;60683;51.730;8.762;2024-01-15T15:38:06;3.38;;;1.42;;
72639;SDS011;60683;51.730;8.762;2024-01-15T15:40:54;1.90;;;1.00;;
72639;SDS011;60683;51.730;8.762;2024-01-15T15:43:42;2.33;;;0.90;;
72639;SDS011;60683;51.730;8.762;2024-01-15T15:46:31;1.48;;;0.65;;
72639;SDS011;60683;51.730;8.762;2024-01-15T15:49:22;2.30;;;1.13;;
72639;SDS011;60683;51.730;8.762;2024-01-15T15:52:10;1.55;;;0.65;;
72639;SDS011;60683;51.730;8.762;2024-01-15T15:55:00;2.75;;;1.55;;
72639;SDS011;60683;51.730;8.762;2024-01-15T15:57:49;2.38;;;0.90;;
72639;SDS011;60683;51.730;8.762;2024-01-15T16:00:39;2.60;;;1.05;;
72639;SDS011;60683;51.730;8.762;2024-01-15T16:03:30;1.60;;;0.80;;
72639;SDS011;60683;51.730;8.762;2024-01-15T16:06:27;1.35;;;0.82;;
72639;SDS011;60683;51.730;8.762;2024-01-15T16:09:17;1.15;;;0.50;;
72639;SDS011;60683;51.730;8.762;2024-01-15T16:12:06;2.63;;;1.13;;
72639;SDS011;60683;51.730;8.762;2024-01-15T16:14:56;1.90;;;0.70;;
72639;SDS011;60683;51.730;8.762;2024-01-15T16:17:49;1.77;;;0.85;;
72639;SDS011;60683;51.730;8.762;2024-01-15T16:20:38;1.35;;;0.70;;
72639;SDS011;60683;51.730;8.762;2024-01-15T16:23:33;1.67;;;0.63;;
72639;SDS011;60683;51.730;8.762;2024-01-15T16:26:23;6.28;;;1.05;;
72639;SDS011;60683;51.730;8.762;2024-01-15T16:29:13;2.25;;;1.10;;
72639;SDS011;60683;51.730;8.762;2024-01-15T16:32:03;1.55;;;0.82;;
72639;SDS011;60683;51.730;8.762;2024-01-15T16:34:51;3.05;;;1.58;;
72639;SDS011;60683;51.730;8.762;2024-01-15T16:37:39;3.58;;;1.40;;
72639;SDS011;60683;51.730;8.762;2024-01-15T16:43:24;2.30;;;0.93;;
72639;SDS011;60683;51.730;8.762;2024-01-15T16:46:15;1.15;;;0.50;;
72639;SDS011;60683;51.730;8.762;2024-01-15T16:49:02;2.33;;;1.50;;
72639;SDS011;60683;51.730;8.762;2024-01-15T16:51:57;4.47;;;1.55;;
72639;SDS011;60683;51.730;8.762;2024-01-15T16:54:45;5.55;;;1.13;;
72639;SDS011;60683;51.730;8.762;2024-01-15T16:57:40;2.28;;;1.00;;
72639;SDS011;60683;51.730;8.762;2024-01-15T17:00:26;2.00;;;1.08;;
72639;SDS011;60683;51.730;8.762;2024-01-15T17:06:09;1.83;;;1.02;;
72639;SDS011;60683;51.730;8.762;2024-01-15T17:09:03;3.25;;;1.75;;
72639;SDS011;60683;51.730;8.762;2024-01-15T17:11:51;2.47;;;1.25;;
72639;SDS011;60683;51.730;8.762;2024-01-15T17:14:43;3.25;;;1.73;;
72639;SDS011;60683;51.730;8.762;2024-01-15T17:17:29;2.95;;;1.35;;
72639;SDS011;60683;51.730;8.762;2024-01-15T17:20:23;6.20;;;1.55;;
72639;SDS011;60683;51.730;8.762;2024-01-15T17:23:13;2.30;;;1.10;;
72639;SDS011;60683;51.730;8.762;2024-01-15T17:26:01;2.70;;;1.55;;
72639;SDS011;60683;51.730;8.762;2024-01-15T17:28:51;4.03;;;0.82;;